• Join FlightAware (Why Join?)
  • Login
  • US Flag 
07:49PM EDT


 

Airport Tracker/Info


-or-


 

Live Flight TrackerFlight Track Log ✈ UAL252 ✈ 13-Jun-2013 ✈ KSAN - KIAH

Flight Track Log - Related Links

Times and Time Zones

All times are in EDT time to prevent confusion due to time zone crossing. See the UAL252 flight status page for this flight to view local times or setup timezone preferences in your user account.

Time Position Orientation Groundspeed Altitude Reporting Facility
EDT Latitude Longitude Course Direction KTS MPH feet Rate Location/Type
05:21PM 32.7558 -117.2753 288° West 195 224 2,900  Level Los Angeles Center
05:22PM 32.6169 -117.0676 103° East  Level FlightAware Approximate
05:22PM 32.7092 -117.3153 216° Southwest 244 281 5,400  Level Los Angeles Center
05:23PM 32.6032 -116.9320 84° East  Level FlightAware Approximate
05:23PM 32.6528 -117.2550 138° Southeast 266 306 8,200  Level Los Angeles Center
05:24PM 32.6157 -116.7946 84° East  Level FlightAware Approximate
05:24PM 32.6317 -117.1364 102° East 306 352 10,900  Level Los Angeles Center
05:25PM 32.6333 -116.6592 90° East  Level FlightAware Approximate
05:25PM 32.6122 -117.0175 101° East 360 414 12,100  Level Los Angeles Center
05:26PM 32.6150 -116.8878 89° East 401 461 14,700 2,460 Climbing Los Angeles Center
05:27PM 32.6319 -116.7603 81° East 398 458 17,300 1,920 Climbing Los Angeles Center
05:28PM 32.6472 -116.6264 82° East 404 465 18,800 1,740 Climbing Los Angeles Center
05:29PM 32.6619 -116.4567 84° East 432 497 21,000 1,740 Climbing Los Angeles Center
05:30PM 32.6733 -116.3114 85° East 447 514 22,400 1,440 Climbing Los Angeles Center
05:31PM 32.6897 -116.1619 83° East 460 529 24,000 1,500 Climbing Los Angeles Center
05:32PM 32.7036 -116.0072 84° East 473 544 25,500 1,620 Climbing Los Angeles Center
05:33PM 32.7214 -115.8186 84° East 481 554 27,400 1,260 Climbing Los Angeles Center
05:35PM 32.7397 -115.5750 85° East 512 589 29,000 1,080 Climbing Albuquerque Center
05:35PM 32.7500 -115.4925 82° East 503 579 29,700 1,260 Climbing Los Angeles Center
05:36PM 32.7536 -115.3272 88° East 504 580 30,900 1,200 Climbing Los Angeles Center
05:37PM 32.7600 -115.1619 87° East 502 578 32,300 1,440 Climbing Los Angeles Center
05:38PM 32.7631 -114.9653 89° East 495 570 33,900 1,440 Climbing Los Angeles Center
05:39PM 32.7675 -114.8036 88° East 490 564 35,300 1,200 Climbing Los Angeles Center
05:40PM 32.7697 -114.6442 89° East 484 557 36,400 720 Climbing Los Angeles Center
05:41PM 32.7717 -114.4842 89° East 484 557 36,900 240 Climbing Los Angeles Center
05:43PM 32.7742 -114.3250 89° East 482 555 36,900  Level Los Angeles Center
05:44PM 32.7772 -114.0514 89° East 485 558 36,900  Level Albuquerque Center
05:45PM 32.7786 -113.9731 89° East 485 558 36,900 60 Level Los Angeles Center
05:46PM 32.8000 -113.8144 81° East 486 559 37,000  Climbing Los Angeles Center
05:47PM 32.8228 -113.6558 80° East 487 560 37,000  Level Los Angeles Center
05:47PM 32.8342 -113.5725 81° East 490 564 37,000  Level Albuquerque Center
05:48PM 32.8572 -113.4119 80° East 489 563 37,000 -60 Level Albuquerque Center
05:49PM 32.8786 -113.2514 81° East 490 564 36,900  Descending Albuquerque Center
05:50PM 32.9006 -113.0917 81° East 488 562 37,000  Climbing Albuquerque Center
05:51PM 32.9275 -112.8997 80° East 487 560 36,900  Descending Albuquerque Center
05:52PM 32.9481 -112.7392 81° East 488 562 37,000  Climbing Albuquerque Center
05:53PM 32.9428 -112.5786 92° East 485 558 37,000  Level Albuquerque Center
05:54PM 32.9181 -112.4228 101° East 479 551 37,000 -60 Level Albuquerque Center
05:55PM 32.8939 -112.2681 100° East 476 548 36,900  Descending Albuquerque Center
05:57PM 32.8697 -112.1053 100° East 474 545 37,000  Climbing Albuquerque Center
05:58PM 32.8467 -111.9525 100° East 472 543 37,000  Level Albuquerque Center
05:59PM 32.8222 -111.7994 101° East 472 543 37,000  Level Albuquerque Center
06:00PM 32.7986 -111.6494 101° East 467 537 37,000  Level Albuquerque Center
06:01PM 32.7692 -111.4678 101° East 469 540 37,000  Level Albuquerque Center
06:02PM 32.7450 -111.3153 101° East 471 542 37,000  Level Albuquerque Center
06:03PM 32.7194 -111.1653 101° East 468 539 37,000  Level Albuquerque Center
06:04PM 32.6944 -111.0119 101° East 472 543 37,000  Level Albuquerque Center
06:05PM 32.6694 -110.8600 101° East 473 544 37,000  Level Albuquerque Center
06:06PM 32.6439 -110.7086 101° East 472 543 37,000  Level Albuquerque Center
06:07PM 32.6136 -110.5264 101° East 471 542 37,000  Level Albuquerque Center
06:08PM 32.5875 -110.3794 102° East 463 533 37,000  Level Albuquerque Center
06:09PM 32.5628 -110.2278 101° East 462 532 37,000  Level Albuquerque Center
06:10PM 32.5328 -110.0803 104° East 465 535 37,000  Level Albuquerque Center
06:11PM 32.4942 -109.9367 108° East 463 533 37,000  Level Albuquerque Center
06:12PM 32.4553 -109.7919 108° East 464 534 37,000  Level Albuquerque Center
06:13PM 32.4086 -109.6175 108° East 469 540 37,000 -60 Level Albuquerque Center
06:14PM 32.3722 -109.4753 107° East 465 535 36,900  Descending Albuquerque Center
06:15PM 32.3353 -109.3325 107° East 461 531 37,000  Climbing Albuquerque Center
06:16PM 32.2911 -109.1925 110° East 459 528 37,000  Level Albuquerque Center
06:17PM 32.2361 -109.0258 111° Southeast 459 528 37,000  Level Albuquerque Center
06:18PM 32.1847 -108.8883 114° Southeast 462 532 37,000  Level Albuquerque Center
06:19PM 32.1311 -108.7533 115° Southeast 461 531 37,000  Level Albuquerque Center
06:20PM 32.0647 -108.6275 122° Southeast 456 525 37,000  Level Albuquerque Center
06:21PM 31.9972 -108.5006 122° Southeast 460 529 37,000  Level Albuquerque Center
06:22PM 31.9619 -108.3264 103° East 461 531 37,000  Level Albuquerque Center
06:23PM 31.9519 -108.1775 94° East 460 529 37,000 -60 Level Albuquerque Center
06:24PM 31.9417 -108.0153 94° East 462 532 36,900 -60 Descending Albuquerque Center
06:25PM 31.9319 -107.8647 94° East 462 532 36,900  Level Albuquerque Center
06:26PM 31.9219 -107.7144 94° East 463 533 36,900  Level Albuquerque Center
06:27PM 31.9117 -107.5636 95° East 466 536 37,000  Climbing Albuquerque Center
06:28PM 31.9011 -107.4128 95° East 466 536 37,000  Level Albuquerque Center
06:30PM 31.8900 -107.2614 95° East 468 539 37,000 -60 Level Albuquerque Center
06:31PM 31.8783 -107.0828 94° East 462 532 36,900 -60 Descending Albuquerque Center
06:32PM 31.8669 -106.9333 95° East 462 532 36,900  Level Albuquerque Center
06:33PM 31.8558 -106.7844 95° East 461 531 36,900  Level Albuquerque Center
06:34PM 31.8442 -106.6372 95° East 456 525 36,900  Level Albuquerque Center
06:35PM 31.8314 -106.4739 95° East 462 532 36,900  Level Albuquerque Center
06:36PM 31.8214 -106.3233 94° East 464 534 37,000  Climbing Albuquerque Center
06:37PM 31.8042 -106.1742 98° East 465 535 37,000 -60 Level Albuquerque Center
06:38PM 31.7856 -106.0292 99° East 452 520 36,900 -60 Descending Albuquerque Center
06:39PM 31.7681 -105.8822 98° East 453 521 36,900  Level Albuquerque Center
06:40PM 31.7472 -105.7036 98° East 459 528 37,000  Climbing Albuquerque Center
06:41PM 31.7286 -105.5542 98° East 461 531 37,000  Level Albuquerque Center
06:42PM 31.7106 -105.4039 98° East 464 534 37,000  Level Albuquerque Center
06:43PM 31.6925 -105.2564 98° East 457 526 37,000 -60 Level Albuquerque Center
06:44PM 31.6731 -105.1081 99° East 457 526 36,900 -60 Descending Albuquerque Center
06:45PM 31.6544 -104.9594 98° East 459 528 36,900  Level Albuquerque Center
06:46PM 31.6364 -104.8094 98° East 461 531 37,000  Climbing Albuquerque Center
06:47PM 31.6158 -104.6594 99° East 464 534 37,000  Level Albuquerque Center
06:48PM 31.5931 -104.4789 98° East 465 535 37,000  Level Albuquerque Center
06:49PM 31.5739 -104.3283 98° East 467 537 37,000 420 Level Albuquerque Center
06:50PM 31.5539 -104.1781 99° East 466 536 37,900 720 Climbing Albuquerque Center
06:51PM 31.5333 -104.0292 99° East 464 534 38,500 480 Climbing Albuquerque Center
06:52PM 31.5144 -103.8786 98° East 466 536 38,900 240 Climbing Albuquerque Center
06:53PM 31.4914 -103.7217 100° East 463 533 39,000  Climbing Albuquerque Center
06:54PM 31.4719 -103.5742 99° East 462 532 39,000  Level Albuquerque Center
06:55PM 31.4508 -103.4244 99° East 466 536 39,000  Level Albuquerque Center
06:56PM 31.4314 -103.2733 99° East 468 539 39,000  Level Albuquerque Center
06:57PM 31.4089 -103.0914 98° East 470 541 39,000 -60 Level Albuquerque Center
06:58PM 31.3897 -102.9397 98° East 472 543 38,900 -60 Descending Albuquerque Center
06:59PM 31.3697 -102.7881 99° East 472 543 38,900  Level Albuquerque Center
07:00PM 31.3514 -102.6356 98° East 472 543 39,000  Climbing Albuquerque Center
07:02PM 31.3119 -102.3394 99° East 471 542 39,000  Level Houston Center
07:03PM 31.2936 -102.1842 98° East 467 537 39,000  Level Albuquerque Center
07:05PM 31.2917 -101.9997 91° East 473 544 39,100  Climbing Albuquerque Center
07:05PM 31.2897 -101.8608 91° East 468 539 39,000 -120 Descending Houston Center
07:07PM 31.2858 -101.7089 92° East 468 539 38,900 -60 Descending Houston Center
07:08PM 31.2814 -101.5583 92° East 467 537 38,900  Level Houston Center
07:09PM 31.2556 -101.4117 102° East 462 532 39,000  Climbing Houston Center
07:10PM 31.2286 -101.2369 100° East 457 526 38,900 -60 Descending Houston Center
07:11PM 31.2097 -101.1114 100° East 455 524 38,900  Level Houston Center
07:12PM 31.1892 -100.9325 98° East 459 528 38,900  Level Houston Center
07:13PM 31.1464 -100.7903 109° East 462 532 39,000  Climbing Houston Center
07:14PM 31.1011 -100.6519 111° Southeast 458 527 39,000  Level Houston Center
07:15PM 31.0464 -100.5192 116° Southeast 455 524 39,000 -60 Level Houston Center
07:16PM 30.9933 -100.3844 115° Southeast 457 526 38,900 -60 Descending Houston Center
07:17PM 30.9436 -100.2494 113° Southeast 455 524 38,900  Level Houston Center
07:18PM 30.9117 -100.1042 104° East 461 531 39,000  Climbing Houston Center
07:19PM 30.8717 -99.9325 105° East 459 528 38,900  Descending Houston Center
07:20PM 30.8394 -99.7878 105° East 461 531 39,000  Climbing Houston Center
07:21PM 30.8067 -99.6425 105° East 463 533 39,000 -60 Level Houston Center
07:22PM 30.7808 -99.4956 102° East 463 533 38,900  Descending Houston Center
07:23PM 30.7711 -99.3450 94° East 467 537 39,000  Climbing Houston Center
07:24PM 30.7803 -99.1947 86° East 468 539 38,900  Descending Houston Center
07:25PM 30.7906 -99.0261 86° East 470 541 39,000  Climbing Houston Center
07:26PM 30.7969 -98.8714 87° East 476 548 39,000  Level Houston Center
07:27PM 30.7986 -98.7161 89° East 476 548 39,100  Climbing Houston Center
07:28PM 30.8011 -98.5606 89° East 476 548 39,000 -60 Descending Houston Center
07:29PM 30.8050 -98.4047 88° East 476 548 39,000  Level Houston Center
07:30PM 30.8083 -98.2489 89° East 479 551 39,000  Level Houston Center
07:31PM 30.8097 -98.0644 89° East 484 557 39,000  Level Houston Center
07:32PM 30.8128 -97.9078 89° East 483 556 39,000  Level Houston Center
07:33PM 30.8139 -97.7511 89° East 482 555 39,000 -240 Level Houston Center
07:34PM 30.8158 -97.5947 89° East 481 554 38,600 -720 Descending Houston Center
07:35PM 30.8167 -97.4375 90° East 485 558 37,600 -1,020 Descending Houston Center
07:36PM 30.8172 -97.2750 90° East 510 587 36,600 -1,140 Descending Houston Center
07:37PM 30.7969 -97.0919 97° East 509 586 35,300 -2,280 Descending Houston Center
07:38PM 30.7558 -96.9381 107° East 500 575 31,900 -2,940 Descending Houston Center
07:40PM 30.7136 -96.7858 108° East 496 571 29,300 -2,580 Descending Houston Center
07:41PM 30.6733 -96.6383 108° East 482 555 26,700 -2,460 Descending Houston Center
07:42PM 30.6358 -96.4997 107° East 455 524 24,300 -2,280 Descending Houston Center
07:43PM 30.5983 -96.3689 108° East 428 493 22,000 -2,340 Descending Houston Center
07:44PM 30.5628 -96.2450 108° East 405 466 19,600 -2,580 Descending Houston Center
07:44PM 30.5403 -96.1681 109° East 391 450 18,000 -2,460 Descending Houston Center
07:45PM 30.5294 -96.1261 107° East 389 448 17,100 -2,520 Descending Houston Center
07:45PM 30.5075 -96.0531 109° East 375 432 15,500 -2,460 Descending Houston Center
07:46PM 30.4933 -96.0061 109° East 371 427 14,600 -2,280 Descending Houston Center
07:46PM 30.4767 -95.9403 106° East 362 417 13,200 -1,920 Descending Houston Center
07:47PM 30.4625 -95.8958 110° East 362 417 12,700 -1,320 Descending Houston Center
07:47PM 30.4350 -95.8458 123° Southeast 358 412 12,000 -720 Descending Houston Center
07:48PM 30.4019 -95.8097 137° Southeast 355 409 12,000 -180 Level Houston Center
07:48PM 30.3539 -95.7583 137° Southeast 357 411 11,800 -540 Descending Houston Center
07:49PM 30.3283 -95.7306 137° Southeast 358 412 11,500 -900 Descending Houston Center
07:49PM 30.2867 -95.6889 139° Southeast 356 410 11,000 -1,080 Descending Houston Center
07:50PM 30.2406 -95.6397 137° Southeast 355 409 10,400 -900 Descending Houston Center
07:50PM 30.2125 -95.6106 138° Southeast 350 403 10,100 -420 Descending Houston Center
07:51PM 30.1736 -95.5700 138° Southeast 333 383 10,000 -660 Descending Houston Center
07:51PM 30.1456 -95.5411 138° Southeast 281 323 9,400 -1,560 Descending Houston Center
07:52PM 30.1147 -95.5083 137° Southeast 293 337 8,400 -1,680 Descending Houston Center
07:52PM 30.1050 -95.4639 104° East 281 323 7,700 -1,500 Descending Houston Center
07:53PM 30.1061 -95.4219 88° East 284 327 6,900 -1,620 Descending Houston Center
07:53PM 30.1056 -95.3769 91° East 277 319 6,100 -900 Descending Houston Center
07:54PM 30.1069 -95.3339 88° East 276 318 6,000 -120 Descending Houston Center
07:54PM 30.1056 -95.2875 92° East 259 298 6,000 -120 Level Houston Center
07:55PM 30.1056 -95.2494 90° East 268 308 5,900 -480 Descending Houston Center
07:55PM 30.0928 -95.2167 114° Southeast 247 284 5,600 -1,020 Descending Houston Center
07:56PM 30.0736 -95.1800 121° Southeast 250 288 4,900 -1,020 Descending Houston Center